Campbell AAF (Fort Campbell) Air Field
KHOP : now visible

Airfield :











YOU CAN JOIN US ON...

 
LOGIN :

Register | Disclaimer

   EN    FR    IT 

 









Legend :    VFR   Marginal VFR   IFR   Intensive IFR   Very Intensive IFR
Visi :
Ceiling :
>= 8 km
>= 3000ft
5 to 8 km
1000 to 3000 ft
1500m to 5 km
500 to 1000 ft
800 to 1500m
200 to 500 ft
< 800m
< 200 ft
Symbols :   Thunderstorms  Fog  Heavy snow  Heavy precipitations  Wind > 20 kt






- Airport Elevation : 573 ft


KHOP - Campbell AAF (Fort Campbell) Air Field

CURRENT METAR :
  • 242156Z AUTO 24011KT 10SM -DZ BKN019 06/04 A2988 RMK AO2 DZB52 BKN V SCT SLP123 P0000 T00580044

EXPIRED METARs :
  • 242111Z AUTO 24015KT 10SM SCT018 BKN024 OVC085 06/05 A2987 RMK AO2 CIG 017V024 SLP119
  • 242056Z AUTO 23016KT 10SM BKN019 BKN025 OVC090 07/05 A2986 RMK AO2 RAB33E42DZB42E52 SLP116 P0000 60001 T00650048 55004
  • 242033Z AUTO 21013KT 10SM -RA BKN018 BKN025 BKN050 07/05 A2985 RMK AO2 RAB33 CIG 018V026 SLP112
  • 242011Z AUTO 22011G18KT 10SM SCT019 BKN024 OVC050 07/05 A2985 RMK AO2 CIG 018V024 SLP112
  • 241956Z AUTO 22011KT 10SM BKN018 BKN029 BKN036 BKN043 BKN050 OVC140 07/05 A2985 RMK AO2 RAE10DZB10E13RAB17E26DZB26E27 CIG 018V043 BKN018 V SCT SLP112 P0000 T00680053
  • 241942Z AUTO 23019KT 10SM SCT014 SCT029 SCT036 BKN047 BKN140 07/06 A2985 RMK AO2 RAE10DZB10E13RAB17E26DZB26E27 SLP112
  • 241927Z AUTO 23018G24KT 10SM BKN014 BKN028 06/06 A2985 RMK AO2 RAE10DZB10E13RAB17E26DZB26E27 SLP112
  • 241917Z AUTO 23010KT 10SM -RA FEW003 BKN014 BKN021 OVC025 06/06 A2985 RMK AO2 RAE10DZB10E13RAB17 SLP112

TAF AMD TAF KHOP
Valid from the 24 at 19:00 until the 25 at 22:00 UTC


241900Z 2419/2522 22010G15KT 9000 BR OVC015 620205 510103 QNH2985INS
TEMPO 2419/2421 8000 -RA
BECMG 2500/2501 23010G15KT 9000 -DZ OVC010 620154 QNH2988INS
BECMG 2505/2506 24010G15KT 9000 BR BKN015 620155 QNH3000INS
BECMG 2509/2510 27012G18KT 9999 NSW OVC020 620203 QNH3003INS TX06/2419Z TN01/2504Z



MET'MAP, your aeronautical weather chart ! - Copyright ORBIFLY December 2007 - Disclaimer

ORBIFLY MET'MAP TEAM :

Programming & Development : Alexandra Zaïnal
Concept & original design : Baudouin d'Aumeries
Assistance for programming : Marc-Olivier Méhu
Technical & hardware support : Manuel Goepfert

Contact : metmap@orbifly.com




SOURCES & CREDITS :

   NOAA       Earth
Advisory